createdAt,value
2019-04-11T00:02:06.720Z,100102.02
2019-04-11T00:04:36.053Z,100100.08
2019-04-11T00:07:05.903Z,100098.34
2019-04-11T00:09:35.565Z,100097.52
2019-04-11T00:12:06.399Z,100103.13
2019-04-11T00:14:35.895Z,100099.09
2019-04-11T00:17:05.796Z,100103.50
2019-04-11T00:19:35.826Z,100096.39
2019-04-11T00:22:05.706Z,100094.37
2019-04-11T00:24:35.138Z,100084.75
2019-04-11T00:27:04.649Z,100089.17
2019-04-11T00:29:34.458Z,100097.98
2019-04-11T00:32:06.548Z,100085.69
2019-04-11T00:34:35.495Z,100091.56
2019-04-11T00:37:05.206Z,100097.55
2019-04-11T00:39:35.408Z,100091.47
2019-04-11T00:42:06.093Z,100092.39
2019-04-11T00:44:35.895Z,100093.12
2019-04-11T00:47:06.847Z,100089.93
2019-04-11T00:49:36.677Z,100091.66
2019-04-11T00:52:06.544Z,100092.56
2019-04-11T00:54:36.024Z,100091.45
2019-04-11T00:57:06.471Z,100091.47
2019-04-11T00:59:35.931Z,100090.19
2019-04-11T01:02:07.268Z,100094.33
2019-04-11T01:04:37.114Z,100094.78
2019-04-11T01:07:06.931Z,100093.52
2019-04-11T01:09:36.761Z,100100.03
2019-04-11T01:12:06.372Z,100102.93
2019-04-11T01:14:37.190Z,100109.44
2019-04-11T01:17:07.789Z,100110.16
2019-04-11T01:19:38.498Z,100108.41
2019-04-11T01:22:08.267Z,100114.02
2019-04-11T01:24:37.794Z,100106.22
2019-04-11T01:27:07.768Z,100108.19
2019-04-11T01:29:37.720Z,100106.81
2019-04-11T01:32:11.443Z,100112.30
2019-04-11T01:34:42.502Z,100115.54
2019-04-11T01:37:11.989Z,100118.50
2019-04-11T01:39:43.380Z,100119.94
2019-04-11T01:42:13.260Z,100120.56
2019-04-11T01:44:43.003Z,100128.28
2019-04-11T01:47:14.998Z,100126.05
2019-04-11T01:49:44.374Z,100128.52
2019-04-11T01:52:13.974Z,100125.39
2019-04-11T01:54:43.878Z,100131.22
2019-04-11T01:57:13.915Z,100126.75
2019-04-11T01:59:43.810Z,100125.62
2019-04-11T02:02:21.250Z,100130.05
2019-04-11T02:04:52.369Z,100132.80
2019-04-11T02:07:22.602Z,100131.16
2019-04-11T02:09:52.586Z,100133.97
2019-04-11T02:12:22.503Z,100136.27
2019-04-11T02:14:52.151Z,100144.25
2019-04-11T02:17:22.297Z,100144.53
2019-04-11T02:19:52.341Z,100145.06
2019-04-11T02:22:29.098Z,100146.55
2019-04-11T02:25:02.533Z,100147.50
2019-04-11T02:27:33.542Z,100149.22
2019-04-11T02:30:04.492Z,100146.61
2019-04-11T02:32:34.923Z,100148.90
2019-04-11T02:35:07.798Z,100145.17
2019-04-11T02:37:37.968Z,100146.78
2019-04-11T02:40:08.138Z,100145.67
2019-04-11T02:42:38.939Z,100150.05
2019-04-11T02:45:19.878Z,100147.98
2019-04-11T02:47:43.441Z,100153.64
2019-04-11T02:50:14.885Z,100156.47
2019-04-11T02:52:44.492Z,100159.68
2019-04-11T02:55:14.523Z,100162.61
2019-04-11T02:57:45.883Z,100159.05
2019-04-11T03:00:17.993Z,100162.00
2019-04-11T03:02:52.013Z,100167.16
2019-04-11T03:05:20.831Z,100159.48
2019-04-11T03:07:50.725Z,100158.41
2019-04-11T03:10:21.047Z,100167.02
2019-04-11T03:12:52.502Z,100166.00
2019-04-11T03:15:37.655Z,100172.81
2019-04-11T03:17:57.748Z,100168.20
2019-04-11T03:20:36.433Z,100174.12
2019-04-11T03:23:04.067Z,100175.83
2019-04-11T03:25:30.712Z,100175.69
2019-04-11T03:28:01.941Z,100173.13
2019-04-11T03:30:46.458Z,100176.77
2019-04-11T03:36:28.170Z,100174.50
2019-04-11T03:38:31.088Z,100175.18
2019-04-11T03:40:57.718Z,100177.58
2019-04-11T03:43:23.123Z,100179.22
2019-04-11T03:46:01.458Z,100183.09
2019-04-11T03:48:21.796Z,100180.58
2019-04-11T03:50:42.568Z,100188.38
2019-04-11T03:53:12.609Z,100185.09
2019-04-11T03:55:43.383Z,100189.64
2019-04-11T03:58:15.183Z,100189.28
2019-04-11T04:00:45.154Z,100192.48
2019-04-11T04:03:16.165Z,100198.19
2019-04-11T04:05:45.824Z,100199.18
2019-04-11T04:08:15.516Z,100194.40
2019-04-11T04:11:04.018Z,100202.31
2019-04-11T04:13:36.853Z,100205.00
2019-04-11T04:16:24.501Z,100207.88
2019-04-11T04:19:00.899Z,100210.78
2019-04-11T04:21:43.569Z,100213.44
2019-04-11T04:24:30.002Z,100219.47
2019-04-11T04:27:01.761Z,100218.19
2019-04-11T04:29:32.429Z,100218.81
2019-04-11T04:32:02.864Z,100220.97
2019-04-11T04:34:33.825Z,100222.10
2019-04-11T04:37:05.745Z,100222.12
2019-04-11T04:39:36.866Z,100223.63
2019-04-11T04:42:17.362Z,100234.13
2019-04-11T04:44:40.213Z,100238.22
2019-04-11T04:47:19.425Z,100235.58
2019-04-11T04:49:41.066Z,100243.04
2019-04-11T04:52:14.049Z,100241.94
2019-04-11T04:54:41.726Z,100243.63
2019-04-11T04:57:13.056Z,100249.53
2019-04-11T04:59:42.588Z,100247.69
2019-04-11T05:02:12.865Z,100251.95
2019-04-11T05:04:43.626Z,100257.57
2019-04-11T05:07:13.144Z,100260.77
2019-04-11T05:09:42.823Z,100264.39
2019-04-11T05:12:12.186Z,100265.00
2019-04-11T05:14:43.312Z,100263.45
2019-04-11T05:17:13.073Z,100269.78
2019-04-11T05:19:42.557Z,100264.53
2019-04-11T05:22:12.611Z,100267.30
2019-04-11T05:24:43.345Z,100271.72
2019-04-11T05:27:14.694Z,100280.02
2019-04-11T05:29:44.110Z,100281.73
2019-04-11T05:32:13.497Z,100285.38
2019-04-11T05:34:43.524Z,100286.61
2019-04-11T05:37:13.207Z,100285.13
2019-04-11T05:39:42.566Z,100291.64
2019-04-11T05:42:16.001Z,100284.59
2019-04-11T05:44:43.359Z,100284.14
2019-04-11T05:47:18.116Z,100287.59
2019-04-11T05:49:46.549Z,100290.33
2019-04-11T05:52:16.271Z,100289.95
2019-04-11T05:54:51.009Z,100288.54
2019-04-11T05:57:24.244Z,100292.17
2019-04-11T05:59:54.331Z,100287.83
2019-04-11T06:02:25.178Z,100294.10
2019-04-11T06:04:57.731Z,100285.34
2019-04-11T06:07:29.293Z,100291.55
2019-04-11T06:10:13.242Z,100293.41
2019-04-11T06:13:06.486Z,100287.80
2019-04-11T06:15:53.434Z,100287.41
2019-04-11T06:18:35.375Z,100297.61
2019-04-11T06:21:11.810Z,100296.34
2019-04-11T06:23:46.079Z,100293.81
2019-04-11T06:26:30.407Z,100300.06
2019-04-11T06:29:21.774Z,100296.69
2019-04-11T06:32:05.716Z,100293.97
2019-04-11T06:34:37.606Z,100291.36
2019-04-11T06:37:14.570Z,100295.63
2019-04-11T06:39:48.392Z,100292.53
2019-04-11T06:42:29.881Z,100296.98
2019-04-11T06:45:01.962Z,100295.42
2019-04-11T06:47:33.197Z,100301.66
2019-04-11T06:50:04.207Z,100303.36
2019-04-11T06:52:35.498Z,100294.97
2019-04-11T06:55:08.820Z,100299.75
2019-04-11T06:57:40.492Z,100301.87
2019-04-11T07:00:12.684Z,100305.48
2019-04-11T07:02:44.511Z,100307.39
2019-04-11T07:05:18.320Z,100306.05
2019-04-11T07:07:58.006Z,100304.73
2019-04-11T07:10:31.975Z,100308.67
2019-04-11T07:13:20.619Z,100310.06
2019-04-11T07:15:50.617Z,100312.58
2019-04-11T07:18:37.744Z,100318.23
2019-04-11T07:21:10.515Z,100302.56
2019-04-11T07:23:58.174Z,100305.39
2019-04-11T07:26:29.462Z,100309.55
2019-04-11T07:29:13.037Z,100307.73
2019-04-11T07:31:44.314Z,100312.50
2019-04-11T07:34:31.439Z,100308.56
2019-04-11T07:37:06.876Z,100311.34
2019-04-11T07:39:42.615Z,100313.91
2019-04-11T07:42:14.143Z,100313.24
2019-04-11T07:44:49.514Z,100312.25
2019-04-11T07:47:24.573Z,100318.11
2019-04-11T07:49:54.926Z,100320.78
2019-04-11T07:52:25.266Z,100318.07
2019-04-11T07:54:56.624Z,100323.16
2019-04-11T07:57:28.421Z,100326.09
2019-04-11T08:00:02.097Z,100333.38
2019-04-11T08:02:49.627Z,100324.98
2019-04-11T08:05:36.527Z,100324.20
2019-04-11T08:08:09.432Z,100327.61
2019-04-11T08:10:46.058Z,100327.08
2019-04-11T08:13:17.069Z,100326.22
2019-04-11T08:16:04.382Z,100324.09
2019-04-11T08:18:51.341Z,100327.94
2019-04-11T08:21:22.366Z,100322.37
2019-04-11T08:23:54.181Z,100330.24
2019-04-11T08:26:31.260Z,100333.94
2019-04-11T08:29:08.426Z,100335.52
2019-04-11T08:31:51.524Z,100338.99
2019-04-11T08:34:21.901Z,100330.03
2019-04-11T08:37:01.532Z,100334.43
2019-04-11T08:39:31.245Z,100341.77
2019-04-11T08:42:18.476Z,100335.36
2019-04-11T08:44:48.121Z,100339.38
2019-04-11T08:47:18.344Z,100336.34
2019-04-11T08:49:48.112Z,100335.92
2019-04-11T08:52:20.904Z,100334.80
2019-04-11T08:55:00.414Z,100332.80
2019-04-11T08:57:32.196Z,100330.84
2019-04-11T09:00:11.928Z,100336.22
2019-04-11T09:02:41.312Z,100330.32
2019-04-11T09:05:18.302Z,100334.57
2019-04-11T09:07:48.490Z,100336.93
2019-04-11T09:10:36.071Z,100337.12
2019-04-11T09:13:11.094Z,100340.25
2019-04-11T09:15:59.383Z,100345.33
2019-04-11T09:18:30.775Z,100336.52
2019-04-11T09:21:04.659Z,100338.52
2019-04-11T09:23:36.010Z,100338.73
2019-04-11T09:26:07.955Z,100340.27
2019-04-11T09:28:39.725Z,100340.16
2019-04-11T09:31:13.640Z,100334.73
2019-04-11T09:33:55.623Z,100333.10
2019-04-11T09:36:30.607Z,100328.22
2019-04-11T09:39:02.582Z,100334.28
2019-04-11T09:41:40.675Z,100330.41
2019-04-11T09:44:14.840Z,100333.45
2019-04-11T09:47:01.784Z,100334.38
2019-04-11T09:49:36.256Z,100342.13
2019-04-11T09:52:17.061Z,100343.62
2019-04-11T09:54:48.498Z,100336.30
2019-04-11T09:57:20.601Z,100335.99
2019-04-11T10:00:08.243Z,100334.08
2019-04-11T10:02:48.326Z,100340.05
2019-04-11T10:05:20.155Z,100347.11
2019-04-11T10:08:08.575Z,100339.64
2019-04-11T10:10:41.827Z,100340.98
2019-04-11T10:13:18.655Z,100341.54
2019-04-11T10:15:53.649Z,100337.46
2019-04-11T10:18:41.138Z,100340.19
2019-04-11T10:21:13.031Z,100338.48
2019-04-11T10:23:51.243Z,100328.66
2019-04-11T10:26:21.141Z,100339.05
2019-04-11T10:29:11.379Z,100329.03
2019-04-11T10:31:44.312Z,100331.20
2019-04-11T10:34:27.950Z,100340.73
2019-04-11T10:36:59.164Z,100337.73
2019-04-11T10:39:36.136Z,100337.92
2019-04-11T10:42:08.515Z,100334.85
2019-04-11T10:44:56.167Z,100323.66
2019-04-11T10:47:27.320Z,100339.13
2019-04-11T10:50:11.058Z,100339.88
2019-04-11T10:52:55.002Z,100338.13
2019-04-11T10:55:29.402Z,100332.65
2019-04-11T10:58:04.807Z,100329.80
2019-04-11T11:00:35.957Z,100332.42
2019-04-11T11:03:09.950Z,100339.28
2019-04-11T11:05:40.981Z,100331.16
2019-04-11T11:08:29.128Z,100328.52
2019-04-11T11:11:00.442Z,100329.77
2019-04-11T11:13:32.018Z,100323.93
2019-04-11T11:16:02.273Z,100325.89
2019-04-11T11:19:20.665Z,100333.27
2019-04-11T11:21:24.972Z,100330.29
2019-04-11T11:24:05.416Z,100324.39
2019-04-11T11:26:33.997Z,100326.07
2019-04-11T11:29:09.930Z,100331.03
2019-04-11T11:31:40.952Z,100336.31
2019-04-11T11:34:30.562Z,100332.41
2019-04-11T11:37:01.726Z,100335.78
2019-04-11T11:39:33.412Z,100334.36
2019-04-11T11:42:20.392Z,100329.44
2019-04-11T11:45:04.143Z,100331.86
2019-04-11T11:47:46.884Z,100332.27
2019-04-11T11:50:21.253Z,100334.81
2019-04-11T11:52:53.645Z,100326.13
2019-04-11T11:55:25.122Z,100332.74
2019-04-11T11:58:09.035Z,100327.93
2019-04-11T12:00:39.476Z,100326.22
2019-04-11T12:03:17.032Z,100324.13
2019-04-11T12:05:50.276Z,100321.98
2019-04-11T12:08:20.930Z,100327.72
2019-04-11T12:10:51.929Z,100321.61
2019-04-11T12:13:36.421Z,100324.58
2019-04-11T12:16:20.705Z,100317.42
2019-04-11T12:19:00.597Z,100318.05
2019-04-11T12:21:31.840Z,100316.22
2019-04-11T12:24:07.045Z,100326.48
2019-04-11T12:26:38.367Z,100325.55
2019-04-11T12:29:15.748Z,100322.20
2019-04-11T12:31:48.147Z,100323.05
2019-04-11T12:34:19.145Z,100321.67
2019-04-11T12:36:50.901Z,100315.86
2019-04-11T12:39:30.499Z,100303.93
2019-04-11T12:42:01.520Z,100316.53
2019-04-11T12:44:32.553Z,100311.73
2019-04-11T12:47:15.132Z,100310.99
2019-04-11T12:49:53.041Z,100300.91
2019-04-11T12:52:21.311Z,100302.67
2019-04-11T12:55:00.854Z,100316.56
2019-04-11T12:57:34.546Z,100306.18
2019-04-11T13:00:06.781Z,100305.01
2019-04-11T13:02:37.800Z,100305.82
2019-04-11T13:05:09.974Z,100298.39
2019-04-11T13:07:52.949Z,100293.52
2019-04-11T13:10:24.046Z,100292.64
2019-04-11T13:13:04.226Z,100294.13
2019-04-11T13:15:35.250Z,100296.02
2019-04-11T13:18:22.827Z,100286.78
2019-04-11T13:20:56.405Z,100290.56
2019-04-11T13:23:33.624Z,100289.09
2019-04-11T13:26:21.055Z,100291.64
2019-04-11T13:28:57.831Z,100298.56
2019-04-11T13:31:46.965Z,100286.72
2019-04-11T13:34:18.287Z,100291.33
2019-04-11T13:37:05.204Z,100285.77
2019-04-11T13:39:34.931Z,100290.95
2019-04-11T13:42:05.934Z,100285.74
2019-04-11T13:44:35.884Z,100286.25
2019-04-11T13:47:15.574Z,100271.67
2019-04-11T13:49:46.677Z,100274.91
2019-04-11T13:52:35.774Z,100274.23
2019-04-11T13:55:11.393Z,100280.86
2019-04-11T13:57:48.373Z,100276.19
2019-04-11T14:00:35.771Z,100275.68
2019-04-11T14:03:23.099Z,100274.95
2019-04-11T14:05:52.479Z,100277.75
2019-04-11T14:08:32.015Z,100274.93
2019-04-11T14:11:15.249Z,100273.42
2019-04-11T14:13:45.109Z,100263.87
2019-04-11T14:16:16.114Z,100263.33
2019-04-11T14:18:49.650Z,100261.27
2019-04-11T14:21:28.570Z,100263.75
2019-04-11T14:24:05.414Z,100268.36
2019-04-11T14:26:36.436Z,100263.06
2019-04-11T14:29:08.314Z,100247.59
2019-04-11T14:31:39.342Z,100257.20
2019-04-11T14:34:29.181Z,100257.13
2019-04-11T14:37:06.208Z,100259.05
2019-04-11T14:39:55.006Z,100248.77
2019-04-11T14:42:34.737Z,100247.55
2019-04-11T14:45:08.111Z,100258.16
2019-04-11T14:47:39.894Z,100248.13
2019-04-11T14:50:11.851Z,100258.27
2019-04-11T14:52:57.963Z,100252.44
2019-04-11T14:55:28.464Z,100257.27
2019-04-11T14:58:15.693Z,100257.70
2019-04-11T15:00:45.174Z,100257.75
2019-04-11T15:03:21.982Z,100259.25
2019-04-11T15:05:53.041Z,100252.82
2019-04-11T15:08:24.039Z,100259.41
2019-04-11T15:11:13.372Z,100259.91
2019-04-11T15:13:45.798Z,100255.94
2019-04-11T15:16:26.012Z,100256.67
2019-04-11T15:18:57.028Z,100253.33
2019-04-11T15:21:43.975Z,100262.04
2019-04-11T15:24:13.722Z,100252.82
2019-04-11T15:26:53.237Z,100251.30
2019-04-11T15:29:24.263Z,100252.70
2019-04-11T15:32:11.483Z,100247.69
2019-04-11T15:34:42.516Z,100255.45
2019-04-11T15:37:19.240Z,100255.91
2019-04-11T15:39:59.272Z,100260.36
2019-04-11T15:42:30.294Z,100256.25
2019-04-11T15:45:17.140Z,100252.52
2019-04-11T15:47:49.343Z,100253.30
2019-04-11T15:50:37.199Z,100255.52
2019-04-11T15:53:07.300Z,100260.86
2019-04-11T15:55:41.028Z,100252.86
2019-04-11T15:58:12.546Z,100258.17
2019-04-11T16:00:55.225Z,100251.83
2019-04-11T16:03:24.839Z,100257.59
2019-04-11T16:06:13.689Z,100263.66
2019-04-11T16:08:43.693Z,100265.09
2019-04-11T16:11:21.292Z,100260.72
2019-04-11T16:13:55.297Z,100253.33
2019-04-11T16:16:42.758Z,100261.16
2019-04-11T16:19:31.907Z,100253.66
2019-04-11T16:22:19.017Z,100256.88
2019-04-11T16:24:51.214Z,100261.22
2019-04-11T16:27:28.334Z,100265.81
2019-04-11T16:30:02.116Z,100261.75
2019-04-11T16:32:33.102Z,100267.25
2019-04-11T16:35:10.234Z,100271.39
2019-04-11T16:37:40.794Z,100264.00
2019-04-11T16:40:17.944Z,100269.39
2019-04-11T16:42:47.691Z,100269.93
2019-04-11T16:45:27.844Z,100266.72
2019-04-11T16:48:02.164Z,100272.41
2019-04-11T16:50:31.510Z,100275.24
2019-04-11T16:53:00.957Z,100280.00
2019-04-11T16:55:30.338Z,100269.98
2019-04-11T16:58:00.336Z,100271.32
2019-04-11T17:00:29.782Z,100276.55
2019-04-11T17:02:59.161Z,100274.27
2019-04-11T17:05:28.551Z,100276.98
2019-04-11T17:07:59.575Z,100275.86
2019-04-11T17:10:46.423Z,100274.21
2019-04-11T17:13:15.800Z,100278.39
2019-04-11T17:15:45.205Z,100280.16
2019-04-11T17:18:14.562Z,100289.53
2019-04-11T17:20:43.954Z,100293.02
2019-04-11T17:23:13.323Z,100289.25
2019-04-11T17:25:42.701Z,100292.71
2019-04-11T17:28:12.073Z,100294.94
2019-04-11T17:30:41.476Z,100294.86
2019-04-11T17:33:10.851Z,100297.10
2019-04-11T17:35:40.248Z,100298.53
2019-04-11T17:38:09.624Z,100298.98
2019-04-11T17:40:39.579Z,100304.30
2019-04-11T17:43:09.579Z,100295.59
2019-04-11T17:45:40.685Z,100297.34
2019-04-11T17:48:10.059Z,100307.06
2019-04-11T17:50:39.720Z,100307.81
2019-04-11T17:53:09.086Z,100305.39
2019-04-11T17:55:38.466Z,100316.41
2019-04-11T17:58:07.841Z,100318.97
2019-04-11T18:00:38.954Z,100320.50
2019-04-11T18:03:11.772Z,100324.80
2019-04-11T18:05:39.409Z,100324.83
2019-04-11T18:08:08.793Z,100325.20
2019-04-11T18:10:38.512Z,100337.86
2019-04-11T18:13:08.216Z,100336.89
2019-04-11T18:15:37.601Z,100341.02
2019-04-11T18:18:07.043Z,100341.53
2019-04-11T18:20:37.542Z,100339.69
2019-04-11T18:23:06.994Z,100339.84
2019-04-11T18:25:36.462Z,100347.61
2019-04-11T18:28:05.847Z,100351.14
2019-04-11T18:30:35.203Z,100352.09
2019-04-11T18:33:04.885Z,100351.86
2019-04-11T18:35:34.586Z,100358.08
2019-04-11T18:38:03.960Z,100355.85
2019-04-11T18:40:33.341Z,100362.55
2019-04-11T18:43:03.111Z,100359.91
2019-04-11T18:45:32.491Z,100367.80
2019-04-11T18:48:01.854Z,100375.02
2019-04-11T18:50:31.236Z,100374.62
2019-04-11T18:53:02.018Z,100373.47
2019-04-11T18:55:31.398Z,100376.62
2019-04-11T18:58:01.645Z,100381.19
2019-04-11T19:00:32.007Z,100380.38
2019-04-11T19:03:01.464Z,100384.43
2019-04-11T19:05:31.343Z,100390.55
2019-04-11T19:08:00.749Z,100391.30
2019-04-11T19:10:30.100Z,100391.78
2019-04-11T19:12:59.480Z,100393.23
2019-04-11T19:15:28.869Z,100397.26
2019-04-11T19:18:06.339Z,100399.44
2019-04-11T19:20:29.474Z,100399.81
2019-04-11T19:22:59.970Z,100397.39
2019-04-11T19:25:31.564Z,100406.61
2019-04-11T19:28:00.479Z,100403.92
2019-04-11T19:30:29.840Z,100401.57
2019-04-11T19:32:59.225Z,100404.83
2019-04-11T19:35:28.765Z,100407.66
2019-04-11T19:37:58.912Z,100407.05
2019-04-11T19:40:30.324Z,100413.37
2019-04-11T19:42:59.370Z,100415.27
2019-04-11T19:45:28.773Z,100418.55
2019-04-11T19:47:58.138Z,100415.16
2019-04-11T19:50:29.167Z,100415.09
2019-04-11T19:53:02.612Z,100416.94
2019-04-11T19:55:34.557Z,100411.59
2019-04-11T19:58:02.483Z,100420.24
2019-04-11T20:00:31.932Z,100421.45
2019-04-11T20:03:01.564Z,100421.52
2019-04-11T20:05:30.950Z,100420.91
2019-04-11T20:08:00.306Z,100423.93
2019-04-11T20:10:30.790Z,100430.66
2019-04-11T20:13:20.060Z,100430.34
2019-04-11T20:15:50.641Z,100427.69
2019-04-11T20:18:22.535Z,100437.99
2019-04-11T20:20:52.279Z,100433.49
2019-04-11T20:23:21.920Z,100433.33
2019-04-11T20:25:51.291Z,100426.49
2019-04-11T20:28:21.812Z,100436.94
2019-04-11T20:30:51.268Z,100435.33
2019-04-11T20:33:39.967Z,100440.84
2019-04-11T20:36:11.295Z,100435.55
2019-04-11T20:38:40.445Z,100441.95
2019-04-11T20:41:10.104Z,100436.06
2019-04-11T20:43:39.471Z,100446.14
2019-04-11T20:46:09.149Z,100436.43
2019-04-11T20:48:39.429Z,100440.39
2019-04-11T20:51:08.812Z,100440.68
2019-04-11T20:53:38.175Z,100446.58
2019-04-11T20:56:09.967Z,100447.67
2019-04-11T20:58:39.558Z,100444.94
2019-04-11T21:01:09.693Z,100452.28
2019-04-11T21:03:39.650Z,100449.84
2019-04-11T21:06:09.035Z,100449.47
2019-04-11T21:08:38.396Z,100452.78
2019-04-11T21:11:07.784Z,100454.30
2019-04-11T21:13:38.346Z,100450.72
2019-04-11T21:16:08.309Z,100450.49
2019-04-11T21:18:37.687Z,100453.31
2019-04-11T21:21:07.093Z,100456.30
2019-04-11T21:23:36.425Z,100453.23
2019-04-11T21:26:05.778Z,100453.12
2019-04-11T21:28:35.152Z,100452.45
2019-04-11T21:31:04.514Z,100455.70
2019-04-11T21:33:53.565Z,100454.42
2019-04-11T21:36:23.083Z,100448.88
2019-04-11T21:38:53.146Z,100455.19
2019-04-11T21:41:22.509Z,100453.87
2019-04-11T21:43:51.946Z,100457.42
2019-04-11T21:46:21.580Z,100461.09
2019-04-11T21:48:50.951Z,100460.56
2019-04-11T21:51:20.325Z,100463.23
2019-04-11T21:56:28.154Z,100465.31
2019-04-11T21:58:57.510Z,100466.05
2019-04-11T22:01:27.380Z,100468.42
2019-04-11T22:03:57.905Z,100456.30
2019-04-11T22:06:28.018Z,100457.30
2019-04-11T22:08:58.857Z,100453.15
2019-04-11T22:11:28.220Z,100454.61
2019-04-11T22:13:57.603Z,100451.77
2019-04-11T22:16:27.113Z,100452.61
2019-04-11T22:18:56.487Z,100451.66
2019-04-11T22:21:25.856Z,100454.06
2019-04-11T22:23:55.228Z,100452.11
2019-04-11T22:26:24.592Z,100453.81
2019-04-11T22:28:55.098Z,100444.02
2019-04-11T22:31:25.680Z,100450.44
2019-04-11T22:34:09.296Z,100449.23
2019-04-11T22:36:38.658Z,100455.98
2019-04-11T22:39:10.497Z,100449.92
2019-04-11T22:41:39.860Z,100452.89
2019-04-11T22:44:09.237Z,100453.45
2019-04-11T22:46:38.968Z,100453.25
2019-04-11T22:49:08.826Z,100451.02
2019-04-11T22:51:42.552Z,100454.30
2019-04-11T22:54:12.913Z,100455.59
2019-04-11T22:56:41.867Z,100450.84
2019-04-11T22:59:13.758Z,100453.08
2019-04-11T23:01:46.545Z,100451.48
2019-04-11T23:04:16.608Z,100451.17
2019-04-11T23:06:47.274Z,100451.61
2019-04-11T23:09:18.922Z,100448.63
2019-04-11T23:11:47.659Z,100451.20
2019-04-11T23:14:17.034Z,100458.50
2019-04-11T23:16:46.462Z,100461.30
2019-04-11T23:19:15.834Z,100453.02
2019-04-11T23:21:45.537Z,100455.43
2019-04-11T23:24:14.901Z,100457.92
2019-04-11T23:26:44.276Z,100457.36
2019-04-11T23:29:16.179Z,100464.16
2019-04-11T23:31:45.045Z,100464.74
2019-04-11T23:34:14.407Z,100464.59
2019-04-11T23:36:43.788Z,100466.42
2019-04-11T23:39:13.402Z,100469.49
2019-04-11T23:41:42.916Z,100467.42
2019-04-11T23:44:12.275Z,100472.68
2019-04-11T23:46:42.021Z,100470.55
2019-04-11T23:49:11.378Z,100471.27
2019-04-11T23:51:40.758Z,100475.58
2019-04-11T23:54:10.429Z,100473.03
2019-04-11T23:56:39.803Z,100477.77
2019-04-11T23:59:09.186Z,100477.13
